Time;durP1;ratioP1;P1;durP2;ratioP2;P2;SDS_P1;SDS_P2;PMS_P1;PMS_P2;Temp;Humidity;BMP_temperature;BMP_pressure;BME280_temperature;BME280_humidity;BME280_pressure;Samples;Min_cycle;Max_cycle;Signal;HPM_P1;HPM_P2
2024/02/18 00:04:22;;;;;;;10.20;4.30;;;;;;;4.86;100.00;102376.56;213141;1286;139723;-86
2024/02/18 00:09:22;;;;;;;9.90;5.50;;;;;;;4.86;100.00;102379.73;213538;1287;139410;-86
2024/02/18 00:14:23;;;;;;;7.70;3.20;;;;;;;4.85;100.00;102373.52;213250;1286;139584;-85
2024/02/18 00:19:23;;;;;;;8.80;3.90;;;;;;;4.85;100.00;102375.98;213731;1287;139375;-86
2024/02/18 00:24:24;;;;;;;8.60;4.20;;;;;;;4.83;100.00;102378.67;213204;1287;140324;-86
2024/02/18 00:29:24;;;;;;;10.00;4.80;;;;;;;4.82;100.00;102376.11;213739;1288;138345;-86
2024/02/18 00:34:25;;;;;;;13.60;6.80;;;;;;;4.83;100.00;102372.12;213742;1287;139470;-86
2024/02/18 00:39:25;;;;;;;12.90;6.20;;;;;;;4.84;100.00;102371.79;215042;1287;139488;-86
2024/02/18 00:44:26;;;;;;;8.40;4.30;;;;;;;4.84;100.00;102366.38;213204;1287;141140;-86
2024/02/18 00:49:26;;;;;;;9.20;3.40;;;;;;;4.83;100.00;102366.57;213664;1287;138464;-86
2024/02/18 00:54:26;;;;;;;10.50;5.50;;;;;;;4.81;100.00;102366.80;213604;1285;140439;-86
2024/02/18 00:59:27;;;;;;;10.50;4.00;;;;;;;4.81;100.00;102365.70;213801;1285;138914;-86
2024/02/18 01:04:27;;;;;;;9.70;3.50;;;;;;;4.81;100.00;102368.88;213438;1285;140539;-86
2024/02/18 01:09:27;;;;;;;10.20;3.60;;;;;;;4.80;100.00;102363.98;214131;1285;138515;-86
2024/02/18 01:14:28;;;;;;;8.20;2.80;;;;;;;4.78;100.00;102368.27;213675;1285;139422;-86
2024/02/18 01:19:28;;;;;;;7.30;2.50;;;;;;;4.76;100.00;102364.50;214047;1285;138530;-86
2024/02/18 01:24:28;;;;;;;5.90;2.60;;;;;;;4.76;100.00;102368.06;213658;1289;140112;-87
2024/02/18 01:29:29;;;;;;;4.00;2.30;;;;;;;4.74;100.00;102367.88;214135;1289;138357;-86
2024/02/18 01:34:30;;;;;;;6.00;2.40;;;;;;;4.75;100.00;102368.79;213313;1286;139632;-86
2024/02/18 01:39:30;;;;;;;6.30;2.30;;;;;;;4.73;100.00;102378.20;214904;1285;138232;-87
2024/02/18 01:44:32;;;;;;;5.80;1.90;;;;;;;4.71;100.00;102378.98;213621;1288;139509;-86
2024/02/18 01:49:33;;;;;;;5.80;2.60;;;;;;;4.70;100.00;102380.57;213919;1291;138815;-86
2024/02/18 01:54:34;;;;;;;3.90;2.40;;;;;;;4.69;100.00;102385.83;213583;1284;139614;-86
2024/02/18 01:59:35;;;;;;;5.60;2.10;;;;;;;4.67;100.00;102392.17;213977;1288;138628;-86
2024/02/18 02:04:36;;;;;;;5.30;2.00;;;;;;;4.67;100.00;102388.36;213389;1287;142236;-85
2024/02/18 02:09:36;;;;;;;6.80;2.30;;;;;;;4.67;100.00;102390.92;213871;1286;138843;-86
2024/02/18 02:14:37;;;;;;;4.60;2.30;;;;;;;4.66;100.00;102381.22;213050;1287;139286;-86
2024/02/18 02:19:37;;;;;;;4.50;1.90;;;;;;;4.58;100.00;102381.64;213617;1285;138809;-86
2024/02/18 02:24:37;;;;;;;4.80;2.20;;;;;;;4.56;100.00;102383.58;213557;1288;139638;-86
2024/02/18 02:29:38;;;;;;;4.20;2.10;;;;;;;4.52;100.00;102384.33;213957;1286;138664;-85
2024/02/18 02:34:38;;;;;;;8.60;2.80;;;;;;;4.52;100.00;102382.58;213148;1290;140814;-86
2024/02/18 02:39:39;;;;;;;4.70;1.90;;;;;;;4.53;100.00;102378.92;215090;1285;138620;-86
2024/02/18 02:44:39;;;;;;;5.20;1.90;;;;;;;4.48;100.00;102376.35;213610;1285;139966;-86
2024/02/18 02:49:39;;;;;;;4.10;1.80;;;;;;;4.46;100.00;102378.23;214078;1291;138745;-86
2024/02/18 02:54:40;;;;;;;4.40;1.80;;;;;;;4.43;100.00;102377.44;213359;1287;140040;-86
2024/02/18 02:59:40;;;;;;;4.30;2.10;;;;;;;4.42;100.00;102380.33;214054;1289;138542;-86
2024/02/18 03:04:41;;;;;;;3.50;1.90;;;;;;;4.44;100.00;102387.85;213644;1285;139477;-86
2024/02/18 03:09:41;;;;;;;2.40;1.40;;;;;;;4.40;100.00;102386.14;214046;1285;138766;-85
2024/02/18 03:14:42;;;;;;;4.00;1.50;;;;;;;4.36;100.00;102385.85;213456;1290;139419;-86
2024/02/18 03:19:43;;;;;;;4.70;1.90;;;;;;;4.34;100.00;102389.05;214122;1285;138637;-86
2024/02/18 03:24:43;;;;;;;5.60;1.90;;;;;;;4.37;100.00;102389.13;213772;1288;139791;-86
2024/02/18 03:29:45;;;;;;;4.20;1.80;;;;;;;4.39;100.00;102387.96;214141;1285;138953;-86
2024/02/18 03:34:45;;;;;;;4.50;1.70;;;;;;;4.36;100.00;102389.34;213498;1285;140531;-86
2024/02/18 03:39:46;;;;;;;3.60;1.50;;;;;;;4.37;100.00;102384.27;214438;1285;138623;-86
2024/02/18 03:44:46;;;;;;;4.30;1.80;;;;;;;4.34;100.00;102380.09;214955;1285;140092;-86
2024/02/18 03:49:46;;;;;;;5.40;1.70;;;;;;;4.29;100.00;102379.71;214146;1290;138657;-85
2024/02/18 03:54:47;;;;;;;2.80;1.40;;;;;;;4.24;100.00;102374.48;213711;1286;139409;-86
2024/02/18 03:59:47;;;;;;;5.40;1.70;;;;;;;4.20;100.00;102365.80;214136;1289;138463;-86
2024/02/18 04:04:48;;;;;;;2.10;1.40;;;;;;;4.18;100.00;102369.58;213644;1285;139974;-86
2024/02/18 04:09:48;;;;;;;3.20;1.60;;;;;;;4.17;100.00;102369.15;214036;1291;138538;-86
2024/02/18 04:14:49;;;;;;;3.10;1.60;;;;;;;4.16;100.00;102374.50;213461;1290;139865;-85
2024/02/18 04:19:50;;;;;;;3.70;1.60;;;;;;;4.13;100.00;102380.05;214105;1288;138693;-86
2024/02/18 04:24:50;;;;;;;1.80;1.40;;;;;;;4.11;100.00;102380.77;213258;1288;138973;-86
2024/02/18 04:29:51;;;;;;;2.10;1.40;;;;;;;4.04;100.00;102385.62;214059;1288;138360;-85
2024/02/18 04:34:51;;;;;;;5.10;2.50;;;;;;;4.02;100.00;102393.15;213440;1287;140323;-84
2024/02/18 04:39:52;;;;;;;3.60;1.60;;;;;;;4.02;100.00;102400.29;214031;1285;139037;-84
2024/02/18 04:44:52;;;;;;;3.00;1.40;;;;;;;4.03;100.00;102398.64;215072;1290;139565;-85
2024/02/18 04:49:53;;;;;;;2.90;1.60;;;;;;;4.01;100.00;102392.35;213868;1290;138682;-86
2024/02/18 04:54:54;;;;;;;4.70;1.70;;;;;;;4.00;100.00;102389.04;213785;1285;139558;-86
2024/02/18 04:59:54;;;;;;;2.60;1.50;;;;;;;3.95;100.00;102397.36;213969;1289;138585;-86
2024/02/18 05:04:55;;;;;;;3.00;1.30;;;;;;;3.91;100.00;102394.05;213637;1291;139448;-85
2024/02/18 05:09:57;;;;;;;3.60;1.60;;;;;;;3.91;100.00;102406.11;213952;1286;139365;-86
2024/02/18 05:14:58;;;;;;;3.60;1.40;;;;;;;3.92;100.00;102404.79;213472;1288;139396;-85
2024/02/18 05:19:59;;;;;;;6.50;1.50;;;;;;;3.92;100.00;102397.15;212964;1285;140061;-84
2024/02/18 05:24:59;;;;;;;3.00;1.80;;;;;;;3.89;100.00;102396.21;214126;1292;98055;-85
2024/02/18 05:29:59;;;;;;;4.40;1.80;;;;;;;3.87;100.00;102402.34;213516;1287;139762;-85
2024/02/18 05:35:00;;;;;;;4.20;1.80;;;;;;;3.84;100.00;102407.90;214081;1284;138599;-85
2024/02/18 05:40:01;;;;;;;3.30;1.90;;;;;;;3.80;100.00;102395.02;213461;1288;140698;-85
2024/02/18 05:45:02;;;;;;;4.50;1.70;;;;;;;3.81;100.00;102400.41;215488;1286;139324;-85
2024/02/18 05:50:04;;;;;;;2.60;1.60;;;;;;;3.79;100.00;102405.59;213617;1289;139579;-86
2024/02/18 05:55:05;;;;;;;3.50;1.90;;;;;;;3.78;100.00;102408.77;213987;1286;99312;-85
2024/02/18 06:00:06;;;;;;;3.50;1.60;;;;;;;3.74;100.00;102415.17;213249;1286;139763;-85
2024/02/18 06:05:07;;;;;;;4.20;1.70;;;;;;;3.71;100.00;102421.14;213878;1287;138557;-85
2024/02/18 06:10:07;;;;;;;3.40;1.60;;;;;;;3.69;100.00;102427.69;213611;1289;139962;-85
2024/02/18 06:15:09;;;;;;;2.90;1.70;;;;;;;3.68;100.00;102424.58;214109;1289;139424;-85
2024/02/18 06:20:11;;;;;;;3.50;1.60;;;;;;;3.67;100.00;102424.05;213656;1289;139921;-85
2024/02/18 06:25:11;;;;;;;2.60;1.40;;;;;;;3.67;100.00;102425.52;213763;1287;138594;-85
2024/02/18 06:30:12;;;;;;;3.90;2.10;;;;;;;3.69;100.00;102432.90;213205;1290;140574;-84
2024/02/18 06:35:13;;;;;;;2.80;1.60;;;;;;;3.65;100.00;102429.08;213977;1286;138444;-84
2024/02/18 06:40:13;;;;;;;3.10;1.50;;;;;;;3.63;100.00;102432.99;213471;1290;139729;-85
2024/02/18 06:45:14;;;;;;;6.50;1.60;;;;;;;3.64;100.00;102430.27;214243;1287;138598;-85
2024/02/18 06:50:15;;;;;;;2.70;1.50;;;;;;;3.65;100.00;102432.45;214646;1289;139898;-85
2024/02/18 06:55:15;;;;;;;2.60;1.40;;;;;;;3.66;100.00;102432.71;214146;1289;138890;-85
2024/02/18 07:00:16;;;;;;;4.40;1.60;;;;;;;3.66;100.00;102424.48;213772;1285;141301;-85
2024/02/18 07:05:17;;;;;;;3.60;1.60;;;;;;;3.68;100.00;102420.66;214136;1288;138516;-86
2024/02/18 07:10:17;;;;;;;3.30;1.50;;;;;;;3.75;100.00;102416.26;213620;1286;140333;-86
2024/02/18 07:15:18;;;;;;;3.90;1.70;;;;;;;3.79;100.00;102412.70;214115;1289;138555;-84
2024/02/18 07:20:18;;;;;;;3.10;1.80;;;;;;;3.81;100.00;102417.30;213571;1288;139770;-85
2024/02/18 07:25:19;;;;;;;3.70;1.80;;;;;;;3.87;100.00;102416.27;213870;1286;138576;-85
2024/02/18 07:30:19;;;;;;;5.10;1.90;;;;;;;3.94;100.00;102424.65;213625;1289;140065;-85
2024/02/18 07:35:19;;;;;;;4.60;1.60;;;;;;;3.99;100.00;102433.49;214121;1289;138503;-84
2024/02/18 07:40:20;;;;;;;4.60;1.40;;;;;;;4.04;100.00;102434.84;213527;1285;140023;-85
2024/02/18 07:45:20;;;;;;;5.10;2.10;;;;;;;4.04;100.00;102441.73;213843;1284;139048;-85
2024/02/18 07:50:21;;;;;;;5.30;2.20;;;;;;;4.02;100.00;102441.48;216128;1288;139495;-85
2024/02/18 07:55:22;;;;;;;4.20;2.00;;;;;;;4.02;100.00;102438.92;213836;1287;138916;-86
2024/02/18 08:00:22;;;;;;;3.60;1.90;;;;;;;4.09;100.00;102435.77;213348;1286;140126;-87
2024/02/18 08:05:22;;;;;;;4.30;2.00;;;;;;;4.17;100.00;102428.51;213913;1288;138336;-86
2024/02/18 08:10:23;;;;;;;3.80;1.70;;;;;;;4.33;100.00;102413.96;213494;1286;139822;-86
2024/02/18 08:15:24;;;;;;;3.70;1.80;;;;;;;4.46;100.00;102402.92;213785;1289;138698;-86
2024/02/18 08:20:25;;;;;;;3.30;1.70;;;;;;;4.62;100.00;102401.73;213526;1286;140533;-87
2024/02/18 08:25:25;;;;;;;4.10;2.10;;;;;;;4.73;100.00;102401.42;213878;1289;213344;-86
2024/02/18 08:30:25;;;;;;;3.50;1.70;;;;;;;4.81;100.00;102394.30;213661;1289;140356;-85
2024/02/18 08:35:26;;;;;;;8.20;2.10;;;;;;;4.90;100.00;102389.77;214041;1285;138540;-85
2024/02/18 08:40:26;;;;;;;4.10;1.70;;;;;;;4.98;100.00;102399.33;213573;1285;139692;-86
2024/02/18 08:45:26;;;;;;;5.30;2.00;;;;;;;5.08;100.00;102399.48;214024;1287;138519;-86
2024/02/18 08:50:29;;;;;;;7.80;2.30;;;;;;;5.14;99.76;102397.50;215022;1290;139446;-86
2024/02/18 08:55:29;;;;;;;5.60;2.50;;;;;;;5.09;99.08;102394.88;213840;1286;138525;-86
2024/02/18 09:00:29;;;;;;;3.90;2.10;;;;;;;5.07;98.79;102399.16;214444;1286;140453;-86
2024/02/18 09:05:30;;;;;;;5.30;2.60;;;;;;;5.10;98.16;102403.11;216692;1287;138849;-87
2024/02/18 09:10:30;;;;;;;7.10;2.20;;;;;;;5.06;97.02;102402.56;214457;1285;140307;-86
2024/02/18 09:15:32;;;;;;;4.40;1.90;;;;;;;5.08;98.26;102396.53;214689;1285;138699;-86
2024/02/18 09:20:33;;;;;;;5.50;2.50;;;;;;;5.17;99.12;102383.91;213576;1289;140330;-86
2024/02/18 09:25:34;;;;;;;4.20;2.10;;;;;;;5.31;99.26;102386.61;213787;1285;138488;-87
2024/02/18 09:30:35;;;;;;;18.10;5.00;;;;;;;5.39;98.81;102382.39;213660;1285;139716;-86
2024/02/18 09:35:36;;;;;;;18.20;6.10;;;;;;;5.38;96.27;102379.80;214046;1285;138479;-88
2024/02/18 09:40:36;;;;;;;7.50;2.60;;;;;;;5.41;98.92;102377.83;213470;1285;140009;-87
2024/02/18 09:45:39;;;;;;;7.50;3.20;;;;;;;5.73;98.01;102377.07;214074;1285;138944;-87
2024/02/18 09:50:40;;;;;;;6.60;2.50;;;;;;;5.83;96.02;102376.94;215233;1285;139958;-86
2024/02/18 09:55:43;;;;;;;7.80;2.50;;;;;;;5.85;94.60;102372.48;214164;1289;138355;-87
2024/02/18 10:00:45;;;;;;;6.30;2.70;;;;;;;5.88;93.59;102370.95;213660;1285;140512;-87
2024/02/18 10:05:45;;;;;;;4.90;2.50;;;;;;;5.92;94.46;102362.80;213916;1285;138478;-88
2024/02/18 10:10:46;;;;;;;5.60;2.90;;;;;;;6.10;95.29;102353.04;213445;1285;139683;-87
2024/02/18 10:15:48;;;;;;;4.40;2.40;;;;;;;6.23;94.43;102346.11;214014;1285;138650;-88
2024/02/18 10:20:48;;;;;;;5.90;3.00;;;;;;;6.35;93.43;102347.42;213491;1289;139444;-86
2024/02/18 10:25:49;;;;;;;7.80;2.90;;;;;;;6.34;91.48;102333.38;214084;1284;138575;-87
2024/02/18 10:30:49;;;;;;;7.60;3.60;;;;;;;6.32;92.26;102312.36;213528;1285;139790;-87
2024/02/18 10:35:52;;;;;;;7.40;3.30;;;;;;;6.35;90.69;102305.41;214042;1285;138158;-88
2024/02/18 10:41:02;;;;;;;6.30;3.10;;;;;;;6.23;90.41;102297.50;213673;1284;140082;-86
2024/02/18 10:46:05;;;;;;;9.10;3.10;;;;;;;6.19;90.46;102290.31;213974;1289;138671;-87
2024/02/18 10:51:06;;;;;;;8.40;4.20;;;;;;;6.24;93.43;102293.16;214035;1285;139564;-87
2024/02/18 10:56:19;;;;;;;6.60;3.30;;;;;;;6.38;92.77;102281.13;214279;1285;138344;-87
2024/02/18 11:01:24;;;;;;;8.70;4.10;;;;;;;6.38;91.50;102258.00;213505;1285;139521;-86
2024/02/18 11:06:26;;;;;;;7.50;4.20;;;;;;;6.37;92.55;102248.70;214131;1286;110148;-88
2024/02/18 11:11:27;;;;;;;11.30;5.40;;;;;;;6.38;92.60;102246.77;213558;1286;139846;-87
2024/02/18 11:16:30;;;;;;;10.70;5.30;;;;;;;6.38;91.99;102234.95;213940;1290;139328;-85
2024/02/18 11:21:30;;;;;;;13.10;6.40;;;;;;;6.42;92.48;102228.14;213777;1287;139717;-87
2024/02/18 11:26:31;;;;;;;9.70;4.50;;;;;;;6.48;91.99;102227.14;214074;1285;138517;-87
2024/02/18 11:31:32;;;;;;;9.70;4.20;;;;;;;6.41;91.58;102217.67;213713;1289;139210;-87
2024/02/18 11:36:32;;;;;;;7.00;3.40;;;;;;;6.38;92.02;102216.29;214259;1285;99269;-87
2024/02/18 11:41:34;;;;;;;6.90;3.30;;;;;;;6.45;92.01;102212.77;213700;1288;139373;-90
2024/02/18 11:46:38;;;;;;;10.80;3.90;;;;;;;6.58;92.72;102204.92;214161;1290;138330;-86
2024/02/18 11:51:40;;;;;;;7.70;4.60;;;;;;;6.69;91.03;102195.88;215095;1288;139070;-88
2024/02/18 11:56:40;;;;;;;8.60;4.50;;;;;;;6.71;90.34;102183.48;214452;1285;138482;-88
2024/02/18 12:01:41;;;;;;;7.70;3.90;;;;;;;6.70;88.99;102184.23;213794;1285;140133;-87
2024/02/18 12:06:41;;;;;;;8.60;4.50;;;;;;;6.69;89.41;102176.55;214328;1285;98864;-88
2024/02/18 12:11:46;;;;;;;10.10;3.90;;;;;;;6.70;89.98;102167.23;213724;1285;139271;-86
2024/02/18 12:16:50;;;;;;;7.80;4.00;;;;;;;6.73;89.56;102171.16;214126;1289;138356;-87
2024/02/18 12:21:55;;;;;;;8.90;4.50;;;;;;;6.68;90.26;102158.63;213607;1285;139813;-87
2024/02/18 12:26:56;;;;;;;7.50;4.80;;;;;;;6.72;90.37;102152.06;214068;1286;139938;-87
2024/02/18 12:31:56;;;;;;;9.30;5.10;;;;;;;6.77;90.03;102148.63;213624;1289;141327;-86
2024/02/18 12:36:57;;;;;;;9.30;5.40;;;;;;;6.75;88.98;102137.80;214089;1289;98538;-88
2024/02/18 12:42:00;;;;;;;12.80;6.20;;;;;;;6.74;89.66;102127.23;213602;1285;139455;-85
2024/02/18 12:47:01;;;;;;;10.50;5.60;;;;;;;6.73;88.24;102133.11;214172;1284;138808;-88
2024/02/18 12:52:12;;;;;;;9.60;6.70;;;;;;;6.66;89.21;102121.84;214990;1285;139720;-88
2024/02/18 12:57:13;;;;;;;13.90;7.00;;;;;;;6.58;88.31;102110.64;214720;1285;139504;-87
2024/02/18 13:02:13;;;;;;;12.00;7.50;;;;;;;6.48;89.30;102103.45;213475;1289;139789;-86
2024/02/18 13:07:17;;;;;;;12.50;6.90;;;;;;;6.46;89.68;102094.69;214134;1285;139555;-87
2024/02/18 13:12:18;;;;;;;10.20;6.40;;;;;;;6.43;89.90;102079.08;213676;1285;140194;-86
2024/02/18 13:17:19;;;;;;;12.80;6.50;;;;;;;6.41;90.24;102069.70;213997;1285;138895;-86
2024/02/18 13:22:19;;;;;;;14.10;7.80;;;;;;;6.35;90.21;102052.13;213470;1286;139376;-86
2024/02/18 13:27:20;;;;;;;11.90;7.00;;;;;;;6.33;89.92;102054.27;213811;1290;138730;-86
2024/02/18 13:32:20;;;;;;;15.20;9.20;;;;;;;6.33;91.32;102056.54;213234;1290;139784;-84
2024/02/18 13:37:20;;;;;;;12.60;7.70;;;;;;;6.33;90.48;102053.42;213379;1287;139107;-87
2024/02/18 13:42:21;;;;;;;13.30;8.10;;;;;;;6.24;90.97;102045.52;213049;1286;139502;-86
2024/02/18 13:47:21;;;;;;;15.30;8.30;;;;;;;6.23;91.30;102037.30;213820;1287;140118;-87
2024/02/18 13:52:21;;;;;;;13.40;8.40;;;;;;;6.23;90.94;102024.59;214331;1286;139649;-87
2024/02/18 13:57:22;;;;;;;13.30;7.30;;;;;;;6.17;91.18;102006.40;214887;1285;138551;-86
2024/02/18 14:02:22;;;;;;;11.90;7.00;;;;;;;6.14;91.72;101997.40;213657;1285;140197;-86
2024/02/18 14:07:23;;;;;;;11.10;7.20;;;;;;;6.14;91.56;101982.64;214055;1285;138631;-86
2024/02/18 14:12:23;;;;;;;14.10;6.10;;;;;;;6.14;92.10;101966.96;213710;1284;139365;-88
2024/02/18 14:17:24;;;;;;;13.50;7.40;;;;;;;6.10;91.52;101952.89;213918;1286;138893;-86
2024/02/18 14:22:24;;;;;;;10.00;6.80;;;;;;;6.07;92.41;101949.91;213370;1286;139790;-85
2024/02/18 14:27:24;;;;;;;11.80;6.40;;;;;;;6.07;92.76;101962.48;213981;1284;139018;-86
2024/02/18 14:32:25;;;;;;;13.10;7.00;;;;;;;6.06;92.81;101963.05;213656;1285;139651;-86
2024/02/18 14:37:26;;;;;;;12.10;7.40;;;;;;;5.97;92.83;101965.48;214043;1285;138589;-86
2024/02/18 14:42:27;;;;;;;14.50;7.70;;;;;;;5.95;93.06;101956.77;213726;1285;139645;-86
2024/02/18 14:47:27;;;;;;;12.80;7.50;;;;;;;5.92;93.24;101946.60;214061;1289;138346;-86
2024/02/18 14:52:28;;;;;;;13.50;8.00;;;;;;;5.88;93.64;101931.30;213985;1285;139668;-85
2024/02/18 14:57:28;;;;;;;14.50;7.70;;;;;;;5.79;94.16;101914.00;214271;1287;139114;-85
2024/02/18 15:02:29;;;;;;;14.90;8.80;;;;;;;5.78;94.77;101906.20;213392;1291;139449;-86
2024/02/18 15:07:29;;;;;;;15.40;7.90;;;;;;;5.73;95.14;101898.93;214080;1285;138827;-86
2024/02/18 15:12:30;;;;;;;16.00;8.30;;;;;;;5.69;94.96;101895.15;213809;1285;140110;-87
2024/02/18 15:17:30;;;;;;;16.90;8.80;;;;;;;5.63;95.47;101892.45;214178;1289;139832;-87
2024/02/18 15:22:30;;;;;;;17.50;7.60;;;;;;;5.59;96.08;101891.30;213546;1285;139917;-86
2024/02/18 15:27:31;;;;;;;18.10;9.20;;;;;;;5.54;96.10;101874.20;213851;1290;139575;-85
2024/02/18 15:32:32;;;;;;;15.20;8.00;;;;;;;5.45;96.69;101864.31;213338;1287;139824;-87
2024/02/18 15:37:32;;;;;;;12.70;7.40;;;;;;;5.39;97.10;101865.88;213946;1286;138657;-86
2024/02/18 15:42:33;;;;;;;16.00;8.60;;;;;;;5.36;97.74;101854.75;213764;1285;139855;-86
2024/02/18 15:47:35;;;;;;;16.40;8.90;;;;;;;5.24;97.87;101838.54;214125;1285;138586;-86
2024/02/18 15:52:35;;;;;;;18.50;9.30;;;;;;;5.12;98.33;101831.70;213891;1285;139733;-87
2024/02/18 15:57:36;;;;;;;16.80;9.50;;;;;;;5.00;98.80;101820.34;214854;1290;138898;-86
2024/02/18 16:02:36;;;;;;;18.50;10.20;;;;;;;4.90;99.37;101807.04;213298;1289;139847;-86
2024/02/18 16:07:40;;;;;;;18.50;9.60;;;;;;;4.80;99.94;101811.39;214080;1284;139073;-85
2024/02/18 16:12:41;;;;;;;15.10;9.20;;;;;;;4.73;100.00;101808.16;213564;1284;139876;-86
2024/02/18 16:17:41;;;;;;;16.00;9.40;;;;;;;4.65;100.00;101800.53;214101;1291;139605;-86
2024/02/18 16:22:42;;;;;;;18.60;9.40;;;;;;;4.56;100.00;101790.48;213414;1286;140199;-85
2024/02/18 16:27:42;;;;;;;14.60;8.60;;;;;;;4.49;100.00;101787.45;213651;1287;138734;-86
2024/02/18 16:32:42;;;;;;;18.70;10.10;;;;;;;4.44;100.00;101779.21;213273;1290;140001;-85
2024/02/18 16:37:43;;;;;;;18.40;9.90;;;;;;;4.40;100.00;101771.38;213607;1290;140088;-86
2024/02/18 16:42:46;;;;;;;21.70;9.20;;;;;;;4.35;100.00;101756.98;213320;1287;139831;-87
2024/02/18 16:47:46;;;;;;;27.50;13.00;;;;;;;4.32;100.00;101749.36;213571;1286;138754;-87
2024/02/18 16:52:47;;;;;;;18.40;10.20;;;;;;;4.31;100.00;101739.14;213495;1290;140027;-87
2024/02/18 16:57:47;;;;;;;19.70;10.20;;;;;;;4.28;100.00;101733.04;215034;1289;138966;-87
2024/02/18 17:02:48;;;;;;;17.20;9.50;;;;;;;4.24;100.00;101733.88;213641;1285;140222;-86
2024/02/18 17:07:49;;;;;;;18.50;9.70;;;;;;;4.23;100.00;101725.52;214142;1285;138918;-86
2024/02/18 17:12:49;;;;;;;16.80;8.90;;;;;;;4.22;100.00;101720.90;213461;1287;140015;-85
2024/02/18 17:17:50;;;;;;;17.00;10.10;;;;;;;4.23;100.00;101718.98;213738;1287;138715;-86
2024/02/18 17:22:50;;;;;;;20.80;9.80;;;;;;;4.20;100.00;101704.36;213542;1286;139847;-86
2024/02/18 17:27:54;;;;;;;20.00;9.90;;;;;;;4.17;100.00;101698.45;213936;1290;138806;-86
2024/02/18 17:32:54;;;;;;;20.40;11.00;;;;;;;4.13;100.00;101691.27;213677;1287;139821;-85
2024/02/18 17:37:56;;;;;;;21.50;10.10;;;;;;;4.12;100.00;101685.10;213886;1286;139037;-86
2024/02/18 17:42:56;;;;;;;20.30;10.30;;;;;;;4.10;100.00;101682.94;213473;1287;139986;-85
2024/02/18 17:47:58;;;;;;;26.60;12.50;;;;;;;4.08;100.00;101671.38;214275;1285;140214;-86
2024/02/18 17:53:00;;;;;;;25.90;13.30;;;;;;;4.06;100.00;101657.23;213761;1288;140119;-85
2024/02/18 17:58:01;;;;;;;26.70;13.50;;;;;;;4.01;100.00;101641.40;216487;1289;138942;-86
2024/02/18 18:03:01;;;;;;;24.50;14.10;;;;;;;4.00;100.00;101635.01;213719;1291;139794;-86
2024/02/18 18:08:03;;;;;;;25.10;14.20;;;;;;;3.99;100.00;101623.14;214158;1289;139747;-85
2024/02/18 18:13:04;;;;;;;26.50;14.00;;;;;;;3.97;100.00;101619.14;213784;1285;140354;-86
2024/02/18 18:18:04;;;;;;;26.10;14.80;;;;;;;3.98;100.00;101616.68;214090;1286;138761;-86
2024/02/18 18:23:05;;;;;;;26.10;13.80;;;;;;;3.97;100.00;101609.73;213488;1288;139967;-87
2024/02/18 18:28:06;;;;;;;24.20;12.90;;;;;;;3.98;100.00;101602.56;213968;1289;138888;-87
2024/02/18 18:33:06;;;;;;;23.20;11.80;;;;;;;3.98;100.00;101582.92;213924;1288;140484;-87
2024/02/18 18:38:07;;;;;;;23.00;12.30;;;;;;;3.96;100.00;101570.85;214259;1290;139583;-89
2024/02/18 18:43:09;;;;;;;21.90;11.70;;;;;;;3.96;100.00;101559.15;213860;1289;140127;-88
2024/02/18 18:48:09;;;;;;;23.20;13.00;;;;;;;3.96;100.00;101544.82;214243;1285;138606;-88
2024/02/18 18:53:10;;;;;;;26.60;14.00;;;;;;;3.97;100.00;101538.97;213273;1285;140228;-87
2024/02/18 18:58:10;;;;;;;26.20;14.50;;;;;;;4.00;100.00;101539.84;215561;1286;138959;-88
2024/02/18 19:03:11;;;;;;;25.10;13.50;;;;;;;4.02;100.00;101532.64;213700;1285;140682;-88
2024/02/18 19:08:11;;;;;;;27.60;14.20;;;;;;;4.06;100.00;101535.34;214046;1285;138911;-87
2024/02/18 19:13:12;;;;;;;24.30;13.50;;;;;;;4.09;100.00;101516.52;213357;1287;140234;-88
2024/02/18 19:18:12;;;;;;;25.30;13.20;;;;;;;4.12;100.00;101504.75;214231;1288;98019;-89
2024/02/18 19:23:15;;;;;;;27.10;14.20;;;;;;;4.13;100.00;101494.86;213505;1288;140597;-88
2024/02/18 19:28:16;;;;;;;21.90;13.10;;;;;;;4.15;100.00;101487.73;214028;1285;138957;-88
2024/02/18 19:33:17;;;;;;;27.90;13.40;;;;;;;4.15;100.00;101483.78;213452;1288;140266;-89
2024/02/18 19:38:17;;;;;;;27.80;13.40;;;;;;;4.16;100.00;101475.10;213662;1288;141814;-89
2024/02/18 19:43:19;;;;;;;25.20;13.10;;;;;;;4.17;100.00;101468.64;214166;1290;139064;-89
2024/02/18 19:48:21;;;;;;;24.60;13.90;;;;;;;4.19;100.00;101455.92;213555;1288;140669;-88
2024/02/18 19:53:21;;;;;;;28.00;12.90;;;;;;;4.20;100.00;101446.95;213877;1286;138874;-87
2024/02/18 19:58:22;;;;;;;28.20;13.80;;;;;;;4.19;100.00;101438.81;214208;1290;140155;-89
2024/02/18 20:03:22;;;;;;;32.90;15.70;;;;;;;4.17;100.00;101427.89;213955;1289;139099;-88
2024/02/18 20:08:23;;;;;;;30.80;14.10;;;;;;;4.15;100.00;101416.41;213343;1287;140336;-88
2024/02/18 20:13:23;;;;;;;31.50;15.00;;;;;;;4.13;100.00;101406.36;214048;1286;138964;-87
2024/02/18 20:18:24;;;;;;;29.20;16.00;;;;;;;4.13;100.00;101401.73;213812;1288;140028;-89
2024/02/18 20:23:24;;;;;;;33.20;14.80;;;;;;;4.11;100.00;101390.56;214064;1285;139102;-89
2024/02/18 20:28:25;;;;;;;29.70;16.10;;;;;;;4.11;100.00;101389.37;213103;1291;296369;-88
2024/02/18 20:33:25;;;;;;;27.90;15.80;;;;;;;4.11;100.00;101383.00;213720;1287;139067;-87
2024/02/18 20:38:25;;;;;;;31.10;16.70;;;;;;;4.10;100.00;101371.89;213324;1292;140091;-87
2024/02/18 20:43:26;;;;;;;34.80;16.10;;;;;;;4.11;100.00;101368.90;213692;1285;138922;-87
2024/02/18 20:48:27;;;;;;;34.00;17.70;;;;;;;4.11;100.00;101363.92;213619;1285;140069;-87
2024/02/18 20:53:27;;;;;;;30.30;16.60;;;;;;;4.10;100.00;101341.70;214105;1291;139030;-88
2024/02/18 20:58:32;;;;;;;33.50;16.50;;;;;;;4.11;100.00;101334.41;215086;1285;140300;-88
2024/02/18 21:03:32;;;;;;;36.60;16.30;;;;;;;4.10;100.00;101331.90;214293;1290;139713;-86
2024/02/18 21:08:36;;;;;;;39.10;19.40;;;;;;;4.11;100.00;101318.70;213604;1288;140278;-88
2024/02/18 21:13:36;;;;;;;42.60;18.40;;;;;;;4.11;100.00;101319.73;213658;1291;139366;-88
2024/02/18 21:18:37;;;;;;;36.50;18.50;;;;;;;4.14;100.00;101330.06;213680;1285;140318;-87
2024/02/18 21:23:38;;;;;;;32.90;17.80;;;;;;;4.17;100.00;101317.61;214069;1285;139654;-89
2024/02/18 21:28:38;;;;;;;37.70;18.10;;;;;;;4.17;100.00;101313.31;213584;1287;140791;-89
2024/02/18 21:33:39;;;;;;;42.40;18.80;;;;;;;4.16;100.00;101296.71;213879;1293;139052;-88
2024/02/18 21:38:39;;;;;;;33.80;17.80;;;;;;;4.15;100.00;101283.82;213532;1290;140468;-87
2024/02/18 21:43:40;;;;;;;35.30;18.30;;;;;;;4.15;100.00;101275.07;214199;1289;139685;-88
2024/02/18 21:48:40;;;;;;;33.40;16.90;;;;;;;4.13;100.00;101258.35;213750;1285;139999;-87
2024/02/18 21:53:40;;;;;;;39.30;17.80;;;;;;;4.11;100.00;101249.73;214175;1291;139959;-87
2024/02/18 21:58:41;;;;;;;38.30;17.60;;;;;;;4.09;100.00;101244.98;215812;1286;139614;-88
2024/02/18 22:03:41;;;;;;;35.90;17.70;;;;;;;4.09;100.00;101230.60;214291;1286;139562;-87
2024/02/18 22:08:42;;;;;;;32.40;18.10;;;;;;;4.10;100.00;101217.30;213668;1285;140450;-89
2024/02/18 22:13:42;;;;;;;38.80;18.10;;;;;;;4.10;100.00;101206.44;213856;1287;139545;-88
2024/02/18 22:18:42;;;;;;;36.30;18.10;;;;;;;4.12;100.00;101198.72;213425;1286;139966;-89
2024/02/18 22:23:43;;;;;;;35.10;17.50;;;;;;;4.09;100.00;101186.43;213880;1287;140023;-86
2024/02/18 22:28:45;;;;;;;40.00;18.10;;;;;;;4.08;100.00;101179.55;213293;1291;140276;-87
2024/02/18 22:33:45;;;;;;;36.60;17.90;;;;;;;4.07;100.00;101174.13;213961;1285;140475;-88
2024/02/18 22:38:47;;;;;;;34.90;19.50;;;;;;;4.08;100.00;101175.61;213399;1291;140277;-87
2024/02/18 22:43:47;;;;;;;38.00;18.10;;;;;;;4.09;100.00;101163.27;213703;1288;139683;-87